createdAt,value
2022-11-29T00:00:15.387Z,9.90
2022-11-29T00:02:20.051Z,10.20
2022-11-29T00:04:24.818Z,10.10
2022-11-29T00:06:30.847Z,9.70
2022-11-29T00:08:36.029Z,11.20
2022-11-29T00:10:40.652Z,10.60
2022-11-29T00:12:46.343Z,8.80
2022-11-29T00:14:51.000Z,10.10
2022-11-29T00:16:57.205Z,10.70
2022-11-29T00:19:02.201Z,9.60
2022-11-29T00:21:09.102Z,7.80
2022-11-29T00:23:13.713Z,10.60
2022-11-29T00:25:18.292Z,11.00
2022-11-29T00:27:22.970Z,10.60
2022-11-29T00:29:29.356Z,10.90
2022-11-29T00:31:34.618Z,10.70
2022-11-29T00:33:39.256Z,9.50
2022-11-29T00:35:43.931Z,10.70
2022-11-29T00:37:51.430Z,10.40
2022-11-29T00:39:56.122Z,9.70
2022-11-29T00:42:00.739Z,9.80
2022-11-29T00:44:05.492Z,10.10
2022-11-29T00:46:10.517Z,10.20
2022-11-29T00:48:15.279Z,10.60
2022-11-29T00:50:20.384Z,10.10
2022-11-29T00:52:24.964Z,10.60
2022-11-29T00:54:29.683Z,9.90
2022-11-29T00:56:34.308Z,9.90
2022-11-29T00:58:38.975Z,9.90
2022-11-29T01:00:43.904Z,9.80
2022-11-29T01:02:48.521Z,10.60
2022-11-29T01:04:54.346Z,10.10
2022-11-29T01:06:59.051Z,9.20
2022-11-29T01:09:04.120Z,9.90
2022-11-29T01:11:13.050Z,10.00
2022-11-29T01:13:17.723Z,8.90
2022-11-29T01:15:22.720Z,8.90
2022-11-29T01:17:27.323Z,10.20
2022-11-29T01:19:31.947Z,9.20
2022-11-29T01:21:36.627Z,9.90
2022-11-29T01:23:41.709Z,9.50
2022-11-29T01:25:46.491Z,8.00
2022-11-29T01:27:51.082Z,10.00
2022-11-29T01:29:55.681Z,8.80
2022-11-29T01:32:00.296Z,10.20
2022-11-29T01:34:06.372Z,9.60
2022-11-29T01:36:12.978Z,9.50
2022-11-29T01:38:17.794Z,9.50
2022-11-29T01:40:22.437Z,10.20
2022-11-29T01:42:27.132Z,9.60
2022-11-29T01:45:02.739Z,9.00
2022-11-29T01:47:10.224Z,9.60
2022-11-29T01:49:18.698Z,9.30
2022-11-29T01:51:24.379Z,9.70
2022-11-29T01:53:29.284Z,9.60
2022-11-29T01:55:37.375Z,9.30
2022-11-29T01:57:43.885Z,9.30
2022-11-29T01:59:52.324Z,8.10
2022-11-29T02:02:04.682Z,9.60
2022-11-29T02:04:09.742Z,9.80
2022-11-29T02:06:15.795Z,9.20
2022-11-29T02:08:25.058Z,9.00
2022-11-29T02:10:37.689Z,10.00
2022-11-29T02:12:56.941Z,9.80
2022-11-29T02:15:25.068Z,9.70
2022-11-29T02:17:35.774Z,9.50
2022-11-29T02:20:03.034Z,9.60
2022-11-29T02:22:12.093Z,9.80
2022-11-29T02:24:41.297Z,9.80
2022-11-29T02:27:16.774Z,9.60
2022-11-29T02:29:42.065Z,9.40
2022-11-29T02:32:10.337Z,8.80
2022-11-29T02:34:35.067Z,9.00
2022-11-29T02:36:57.013Z,9.30
2022-11-29T02:39:49.486Z,9.20
2022-11-29T02:42:16.273Z,8.80
2022-11-29T02:44:48.862Z,10.00
2022-11-29T02:47:08.945Z,8.80
2022-11-29T02:49:21.563Z,10.40
2022-11-29T02:51:32.701Z,10.50
2022-11-29T02:53:44.626Z,9.70
2022-11-29T02:55:56.793Z,9.20
2022-11-29T02:58:09.535Z,10.40
2022-11-29T03:00:18.177Z,9.50
2022-11-29T03:02:32.657Z,9.90
2022-11-29T03:04:43.848Z,9.50
2022-11-29T03:06:57.268Z,9.10
2022-11-29T03:09:07.901Z,10.20
2022-11-29T03:11:20.540Z,9.50
2022-11-29T03:13:36.357Z,9.70
2022-11-29T03:15:48.155Z,9.00
2022-11-29T03:18:03.090Z,9.70
2022-11-29T03:20:25.814Z,9.40
2022-11-29T03:22:42.978Z,9.00
2022-11-29T03:24:54.565Z,9.30
2022-11-29T03:27:03.574Z,9.50
2022-11-29T03:29:11.866Z,9.30
2022-11-29T03:31:25.944Z,9.20
2022-11-29T03:33:38.915Z,9.40
2022-11-29T03:35:47.872Z,9.10
2022-11-29T03:37:58.614Z,9.40
2022-11-29T03:40:07.876Z,9.70
2022-11-29T03:42:18.620Z,9.20
2022-11-29T03:44:27.855Z,9.30
2022-11-29T03:46:38.013Z,9.90
2022-11-29T03:48:48.738Z,9.50
2022-11-29T03:50:57.307Z,7.50
2022-11-29T03:53:13.743Z,8.80
2022-11-29T03:55:46.410Z,9.10
2022-11-29T03:58:03.011Z,9.30
2022-11-29T04:00:11.061Z,9.40
2022-11-29T04:02:45.910Z,9.20
2022-11-29T04:05:36.050Z,9.80
2022-11-29T04:08:04.372Z,8.80
2022-11-29T04:10:20.464Z,9.30
2022-11-29T04:12:47.521Z,9.50
2022-11-29T04:15:17.277Z,9.50
2022-11-29T04:18:00.696Z,9.60
2022-11-29T04:20:48.158Z,9.40
2022-11-29T04:23:31.349Z,9.90
2022-11-29T04:25:48.572Z,9.80
2022-11-29T04:28:20.303Z,9.60
2022-11-29T04:30:25.897Z,10.10
2022-11-29T04:33:11.090Z,9.20
2022-11-29T04:35:38.537Z,9.00
2022-11-29T04:38:15.940Z,9.80
2022-11-29T04:40:41.006Z,9.40
2022-11-29T04:43:17.712Z,9.00
2022-11-29T04:45:59.410Z,10.30
2022-11-29T04:48:18.229Z,9.80
2022-11-29T04:50:49.570Z,8.90
2022-11-29T04:53:16.574Z,9.80
2022-11-29T04:55:37.075Z,10.80
2022-11-29T04:57:51.453Z,10.40
2022-11-29T05:00:05.650Z,10.70
2022-11-29T05:02:17.545Z,10.90
2022-11-29T05:04:29.649Z,10.70
2022-11-29T05:06:42.330Z,10.50
2022-11-29T05:08:56.128Z,11.10
2022-11-29T05:11:12.107Z,11.90
2022-11-29T05:13:23.737Z,12.40
2022-11-29T05:15:49.835Z,11.30
2022-11-29T05:18:04.048Z,11.60
2022-11-29T05:20:22.885Z,11.10
2022-11-29T05:22:33.131Z,11.70
2022-11-29T05:24:53.537Z,11.90
2022-11-29T05:27:08.561Z,10.20
2022-11-29T05:29:20.572Z,11.50
2022-11-29T05:31:40.689Z,11.40
2022-11-29T05:34:15.243Z,11.90
2022-11-29T05:36:29.505Z,12.70
2022-11-29T05:38:43.854Z,12.80
2022-11-29T05:41:02.690Z,12.60
2022-11-29T05:43:22.827Z,12.30
2022-11-29T05:45:33.188Z,13.20
2022-11-29T05:47:46.766Z,12.40
2022-11-29T05:50:05.640Z,12.20
2022-11-29T05:52:24.583Z,12.00
2022-11-29T05:54:34.337Z,12.70
2022-11-29T05:56:48.444Z,12.70
2022-11-29T05:58:58.421Z,12.50
2022-11-29T06:01:14.208Z,12.70
2022-11-29T06:03:24.758Z,12.70
2022-11-29T06:05:35.071Z,11.60
2022-11-29T06:07:45.246Z,12.10
2022-11-29T06:10:01.365Z,12.70
2022-11-29T06:12:18.163Z,12.50
2022-11-29T06:14:45.447Z,12.80
2022-11-29T06:17:08.708Z,12.40
2022-11-29T06:19:49.374Z,13.30
2022-11-29T06:22:07.548Z,12.80
2022-11-29T06:24:34.942Z,12.90
2022-11-29T06:26:57.628Z,12.50
2022-11-29T06:29:21.918Z,12.50
2022-11-29T06:31:32.137Z,12.90
2022-11-29T06:33:44.423Z,11.90
2022-11-29T06:35:57.452Z,12.30
2022-11-29T06:38:09.093Z,12.40
2022-11-29T06:40:16.289Z,12.70
2022-11-29T06:42:20.848Z,10.20
2022-11-29T06:44:26.413Z,13.90
2022-11-29T06:46:43.523Z,13.30
2022-11-29T06:48:56.597Z,12.50
2022-11-29T06:51:14.360Z,12.40
2022-11-29T06:53:29.623Z,13.70
2022-11-29T06:55:44.342Z,12.80
2022-11-29T06:58:05.687Z,12.60
2022-11-29T07:00:16.320Z,12.00
2022-11-29T07:02:34.522Z,12.70
2022-11-29T07:04:54.414Z,13.10
2022-11-29T07:06:59.938Z,11.80
2022-11-29T07:09:13.203Z,11.50
2022-11-29T07:11:18.229Z,12.60
2022-11-29T07:13:23.893Z,12.10
2022-11-29T07:15:29.587Z,11.70
2022-11-29T07:17:42.590Z,12.80
2022-11-29T07:19:54.828Z,12.30
2022-11-29T07:22:05.907Z,11.50
2022-11-29T07:24:25.347Z,12.80
2022-11-29T07:26:35.174Z,12.10
2022-11-29T07:28:54.941Z,11.70
2022-11-29T07:31:05.146Z,11.00
2022-11-29T07:33:18.940Z,11.60
2022-11-29T07:35:33.586Z,11.70
2022-11-29T07:37:50.075Z,11.40
2022-11-29T07:40:01.675Z,11.60
2022-11-29T07:42:15.190Z,12.70
2022-11-29T07:44:28.531Z,11.60
2022-11-29T07:46:33.137Z,11.80
2022-11-29T07:48:37.901Z,11.50
2022-11-29T07:50:42.793Z,11.30
2022-11-29T07:52:47.764Z,11.50
2022-11-29T07:54:52.388Z,11.70
2022-11-29T07:56:57.019Z,11.60
2022-11-29T07:59:01.717Z,11.40
2022-11-29T08:01:06.714Z,11.30
2022-11-29T08:03:11.903Z,11.60
2022-11-29T08:05:17.051Z,11.90
2022-11-29T08:07:21.704Z,11.00
2022-11-29T08:09:26.327Z,9.20
2022-11-29T08:11:30.960Z,11.70
2022-11-29T08:13:35.573Z,11.40
2022-11-29T08:15:45.283Z,10.90
2022-11-29T08:17:52.319Z,10.50
2022-11-29T08:20:00.025Z,11.20
2022-11-29T08:22:08.510Z,11.10
2022-11-29T08:24:13.466Z,10.80
2022-11-29T08:26:20.435Z,11.40
2022-11-29T08:28:25.042Z,11.30
2022-11-29T08:30:31.085Z,11.10
2022-11-29T08:32:38.573Z,11.40
2022-11-29T08:34:43.432Z,9.30
2022-11-29T08:36:48.507Z,10.30
2022-11-29T08:39:01.265Z,10.80
2022-11-29T08:41:10.055Z,10.60
2022-11-29T08:43:14.931Z,10.60
2022-11-29T08:45:19.720Z,10.40
2022-11-29T08:47:24.314Z,10.30
2022-11-29T08:49:28.996Z,10.30
2022-11-29T08:51:33.585Z,10.50
2022-11-29T08:53:38.274Z,10.50
2022-11-29T08:55:43.299Z,10.60
2022-11-29T08:57:48.284Z,10.40
2022-11-29T08:59:52.936Z,10.40
2022-11-29T09:01:57.630Z,10.00
2022-11-29T09:04:02.259Z,10.50
2022-11-29T09:06:13.005Z,9.80
2022-11-29T09:08:17.864Z,10.00
2022-11-29T09:10:22.588Z,9.30
2022-11-29T09:12:27.244Z,10.20
2022-11-29T09:14:31.861Z,10.30
2022-11-29T09:16:38.348Z,9.80
2022-11-29T09:18:48.547Z,9.90
2022-11-29T09:20:55.910Z,9.50
2022-11-29T09:23:01.549Z,9.70
2022-11-29T09:25:07.337Z,9.30
2022-11-29T09:27:11.978Z,6.60
2022-11-29T09:29:18.093Z,9.30
2022-11-29T09:31:22.800Z,9.40
2022-11-29T09:33:27.526Z,9.90
2022-11-29T09:35:32.591Z,9.60
2022-11-29T09:37:37.250Z,9.60
2022-11-29T09:39:42.294Z,9.20
2022-11-29T09:42:12.486Z,9.50
2022-11-29T09:44:21.916Z,10.10
2022-11-29T09:46:38.463Z,9.60
2022-11-29T09:49:04.611Z,9.50
2022-11-29T09:51:22.395Z,8.70
2022-11-29T09:53:40.524Z,9.20
2022-11-29T09:55:59.922Z,9.30
2022-11-29T09:58:06.028Z,8.60
2022-11-29T10:00:18.037Z,9.20
2022-11-29T10:02:30.336Z,8.70
2022-11-29T10:04:41.302Z,8.70
2022-11-29T10:06:50.218Z,9.50
2022-11-29T10:08:59.413Z,9.80
2022-11-29T10:11:15.875Z,9.30
2022-11-29T10:13:24.079Z,9.30
2022-11-29T10:15:30.790Z,9.20
2022-11-29T10:17:39.016Z,9.20
2022-11-29T10:19:48.007Z,9.80
2022-11-29T10:22:00.703Z,10.50
2022-11-29T10:24:11.080Z,8.90
2022-11-29T10:26:16.342Z,9.80
2022-11-29T10:28:23.919Z,9.90
2022-11-29T10:30:28.652Z,10.30
2022-11-29T10:32:33.804Z,10.20
2022-11-29T10:34:39.139Z,9.70
2022-11-29T10:36:46.613Z,8.70
2022-11-29T10:38:53.658Z,10.10
2022-11-29T10:41:04.146Z,10.90
2022-11-29T10:43:08.886Z,10.20
2022-11-29T10:45:22.662Z,14.80
2022-11-29T10:47:27.521Z,11.00
2022-11-29T10:49:36.134Z,10.80
2022-11-29T10:51:40.995Z,10.00
2022-11-29T10:53:46.310Z,9.00
2022-11-29T10:55:55.173Z,9.60
2022-11-29T10:58:14.838Z,10.10
2022-11-29T11:00:20.193Z,10.00
2022-11-29T11:02:25.033Z,8.70
2022-11-29T11:04:33.543Z,9.00
2022-11-29T11:06:49.958Z,9.50
2022-11-29T11:08:56.860Z,8.60
2022-11-29T11:11:03.107Z,8.00
2022-11-29T11:13:20.657Z,9.50
2022-11-29T11:15:31.498Z,9.10
2022-11-29T11:17:36.097Z,9.10
2022-11-29T11:19:40.960Z,9.70
2022-11-29T11:21:45.633Z,10.50
2022-11-29T11:23:57.684Z,8.90
2022-11-29T11:26:05.219Z,9.50
2022-11-29T11:28:23.674Z,9.40
2022-11-29T11:30:30.134Z,8.60
2022-11-29T11:32:35.157Z,13.00
2022-11-29T11:34:50.247Z,10.70
2022-11-29T11:37:10.968Z,10.20
2022-11-29T11:39:22.690Z,9.60
2022-11-29T11:41:29.886Z,10.20
2022-11-29T11:43:35.433Z,9.40
2022-11-29T11:45:40.072Z,9.80
2022-11-29T11:47:47.533Z,9.80
2022-11-29T11:50:04.167Z,10.20
2022-11-29T11:52:16.618Z,9.60
2022-11-29T11:54:21.769Z,9.10
2022-11-29T11:56:33.577Z,9.20
2022-11-29T11:58:45.252Z,9.50
2022-11-29T12:01:08.637Z,9.40
2022-11-29T12:03:26.461Z,10.30
2022-11-29T12:05:31.213Z,10.10
2022-11-29T12:08:06.765Z,9.80
2022-11-29T12:10:14.890Z,9.50
2022-11-29T12:12:23.763Z,9.70
2022-11-29T12:14:36.780Z,10.00
2022-11-29T12:16:43.096Z,10.50
2022-11-29T12:18:51.999Z,9.60
2022-11-29T12:21:01.548Z,9.70
2022-11-29T12:23:21.741Z,9.80
2022-11-29T12:25:29.990Z,9.30
2022-11-29T12:27:34.618Z,8.70
2022-11-29T12:29:39.303Z,9.60
2022-11-29T12:31:59.180Z,9.10
2022-11-29T12:34:22.666Z,9.30
2022-11-29T12:36:39.766Z,9.00
2022-11-29T12:38:58.440Z,8.90
2022-11-29T12:41:17.922Z,9.30
2022-11-29T12:43:34.453Z,8.70
2022-11-29T12:45:45.425Z,8.90
2022-11-29T12:48:02.116Z,11.30
2022-11-29T12:50:19.469Z,11.30
2022-11-29T12:52:33.315Z,9.50
2022-11-29T12:54:55.375Z,8.90
2022-11-29T12:57:10.465Z,8.90
2022-11-29T12:59:30.915Z,8.00
2022-11-29T13:01:47.267Z,8.70
2022-11-29T13:03:58.850Z,8.30
2022-11-29T13:06:14.615Z,8.40
2022-11-29T13:08:45.016Z,8.10
2022-11-29T13:11:06.208Z,7.40
2022-11-29T13:13:21.016Z,7.60
2022-11-29T13:15:35.709Z,8.30
2022-11-29T13:17:45.811Z,8.60
2022-11-29T13:19:55.471Z,8.30
2022-11-29T13:22:09.321Z,8.90
2022-11-29T13:24:19.428Z,8.80
2022-11-29T13:26:27.145Z,8.50
2022-11-29T13:28:35.329Z,7.90
2022-11-29T13:30:41.026Z,8.80
2022-11-29T13:32:53.896Z,7.90
2022-11-29T13:35:01.973Z,7.80
2022-11-29T13:37:18.625Z,8.70
2022-11-29T13:39:38.632Z,8.50
2022-11-29T13:41:53.941Z,8.20
2022-11-29T13:44:04.413Z,8.80
2022-11-29T13:46:23.684Z,8.90
2022-11-29T13:48:47.336Z,8.40
2022-11-29T13:50:52.043Z,7.60
2022-11-29T13:53:05.344Z,8.80
2022-11-29T13:55:23.818Z,8.10
2022-11-29T13:57:28.449Z,8.50
2022-11-29T13:59:35.960Z,8.40
2022-11-29T14:01:49.261Z,8.10
2022-11-29T14:04:04.790Z,7.90
2022-11-29T14:06:16.180Z,8.30
2022-11-29T14:08:42.516Z,8.40
2022-11-29T14:10:55.256Z,7.90
2022-11-29T14:13:00.229Z,8.30
2022-11-29T14:15:17.573Z,8.50
2022-11-29T14:17:45.909Z,8.80
2022-11-29T14:19:50.650Z,14.10
2022-11-29T14:22:29.326Z,12.30
2022-11-29T14:24:54.861Z,8.60
2022-11-29T14:27:38.621Z,8.90
2022-11-29T14:29:56.116Z,9.30
2022-11-29T14:32:01.277Z,9.80
2022-11-29T14:34:12.441Z,9.20
2022-11-29T14:36:31.605Z,9.60
2022-11-29T14:38:44.643Z,9.40
2022-11-29T14:40:57.546Z,9.50
2022-11-29T14:43:14.159Z,10.00
2022-11-29T14:45:28.566Z,10.40
2022-11-29T14:47:36.358Z,9.30
2022-11-29T14:49:44.676Z,9.30
2022-11-29T14:52:08.764Z,10.10
2022-11-29T14:54:18.251Z,10.40
2022-11-29T14:56:40.503Z,10.10
2022-11-29T14:58:46.015Z,9.50
2022-11-29T15:00:58.710Z,9.90
2022-11-29T15:03:13.149Z,9.30
2022-11-29T15:05:21.514Z,10.40
2022-11-29T15:07:31.747Z,9.50
2022-11-29T15:09:38.240Z,9.90
2022-11-29T15:11:57.590Z,9.60
2022-11-29T15:14:07.180Z,9.80
2022-11-29T15:16:27.396Z,10.60
2022-11-29T15:18:51.207Z,9.90
2022-11-29T15:21:08.848Z,9.10
2022-11-29T15:23:17.434Z,9.60
2022-11-29T15:25:23.867Z,9.60
2022-11-29T15:27:28.962Z,9.70
2022-11-29T15:29:33.647Z,10.10
2022-11-29T15:31:40.816Z,10.40
2022-11-29T15:33:48.820Z,10.40
2022-11-29T15:35:55.348Z,10.70
2022-11-29T15:38:00.049Z,10.30
2022-11-29T15:40:10.253Z,10.20
2022-11-29T15:42:15.818Z,10.40
2022-11-29T15:44:23.173Z,10.60
2022-11-29T15:46:29.533Z,10.30
2022-11-29T15:48:34.467Z,10.50
2022-11-29T15:50:43.290Z,10.70
2022-11-29T15:52:48.005Z,9.90
2022-11-29T15:54:59.479Z,10.50
2022-11-29T15:57:10.528Z,10.50
2022-11-29T15:59:26.071Z,10.10
2022-11-29T16:01:31.957Z,10.00
2022-11-29T16:03:41.137Z,10.20
2022-11-29T16:05:52.724Z,9.70
2022-11-29T16:08:01.152Z,10.50
2022-11-29T16:10:12.805Z,10.40
2022-11-29T16:12:19.212Z,10.90
2022-11-29T16:14:26.566Z,11.00
2022-11-29T16:16:32.574Z,10.50
2022-11-29T16:18:40.132Z,11.10
2022-11-29T16:20:57.921Z,11.00
2022-11-29T16:23:13.943Z,10.90
2022-11-29T16:25:20.058Z,11.30
2022-11-29T16:27:25.094Z,10.90
2022-11-29T16:29:35.181Z,10.80
2022-11-29T16:31:41.396Z,11.30
2022-11-29T16:33:47.947Z,11.00
2022-11-29T16:36:02.984Z,11.80
2022-11-29T16:38:20.996Z,11.60
2022-11-29T16:40:30.650Z,12.20
2022-11-29T16:42:35.501Z,11.70
2022-11-29T16:45:03.156Z,11.50
2022-11-29T16:47:19.053Z,12.60
2022-11-29T16:49:35.983Z,11.90
2022-11-29T16:51:46.365Z,11.90
2022-11-29T16:53:55.368Z,11.50
2022-11-29T16:56:00.586Z,12.10
2022-11-29T16:58:05.987Z,11.70
2022-11-29T17:00:26.013Z,13.20
2022-11-29T17:02:31.328Z,12.40
2022-11-29T17:04:40.283Z,12.50
2022-11-29T17:06:46.350Z,12.00
2022-11-29T17:08:54.473Z,12.10
2022-11-29T17:11:00.749Z,11.70
2022-11-29T17:13:06.168Z,12.10
2022-11-29T17:15:12.516Z,11.70
2022-11-29T17:17:19.537Z,12.20
2022-11-29T17:19:30.674Z,12.70
2022-11-29T17:21:36.501Z,11.90
2022-11-29T17:23:42.657Z,12.60
2022-11-29T17:25:55.467Z,12.70
2022-11-29T17:28:01.009Z,12.60
2022-11-29T17:30:07.975Z,12.60
2022-11-29T17:32:13.293Z,12.00
2022-11-29T17:34:20.330Z,12.20
2022-11-29T17:36:25.840Z,13.20
2022-11-29T17:38:30.803Z,12.30
2022-11-29T17:40:37.701Z,12.80
2022-11-29T17:42:43.455Z,12.80
2022-11-29T17:44:48.857Z,12.10
2022-11-29T17:46:54.919Z,11.90
2022-11-29T17:49:04.600Z,11.80
2022-11-29T17:51:29.162Z,12.20
2022-11-29T17:53:35.932Z,12.50
2022-11-29T17:55:41.813Z,12.70
2022-11-29T17:57:47.568Z,12.40
2022-11-29T17:59:53.551Z,13.00
2022-11-29T18:01:58.255Z,13.10
2022-11-29T18:04:06.313Z,12.40
2022-11-29T18:06:13.561Z,12.50
2022-11-29T18:08:20.065Z,12.60
2022-11-29T18:10:26.593Z,12.10
2022-11-29T18:12:32.066Z,12.50
2022-11-29T18:14:38.128Z,13.70
2022-11-29T18:16:44.571Z,12.30
2022-11-29T18:18:54.392Z,12.10
2022-11-29T18:21:04.044Z,12.20
2022-11-29T18:23:10.744Z,12.20
2022-11-29T18:25:38.244Z,12.60
2022-11-29T18:27:43.267Z,12.70
2022-11-29T18:29:48.712Z,13.00
2022-11-29T18:31:55.624Z,12.80
2022-11-29T18:34:03.226Z,12.90
2022-11-29T18:36:11.008Z,13.50
2022-11-29T18:38:17.166Z,13.60
2022-11-29T18:40:26.078Z,13.30
2022-11-29T18:42:31.550Z,14.10
2022-11-29T18:44:40.139Z,13.30
2022-11-29T18:46:48.219Z,12.90
2022-11-29T18:48:54.308Z,13.40
2022-11-29T18:51:06.205Z,13.20
2022-11-29T18:53:13.085Z,13.00
2022-11-29T18:55:19.700Z,13.60
2022-11-29T18:57:26.224Z,12.50
2022-11-29T18:59:32.118Z,13.10
2022-11-29T19:01:39.792Z,10.00
2022-11-29T19:03:48.434Z,12.80
2022-11-29T19:05:57.930Z,13.10
2022-11-29T19:08:09.243Z,12.80
2022-11-29T19:10:16.333Z,13.50
2022-11-29T19:12:23.010Z,13.00
2022-11-29T19:14:35.200Z,13.40
2022-11-29T19:16:43.279Z,13.30
2022-11-29T19:18:53.020Z,13.40
2022-11-29T19:21:10.366Z,12.50
2022-11-29T19:23:17.626Z,13.20
2022-11-29T19:25:23.681Z,13.00
2022-11-29T19:27:31.420Z,12.60
2022-11-29T19:29:39.818Z,12.10
2022-11-29T19:31:51.663Z,13.50
2022-11-29T19:34:04.417Z,12.10
2022-11-29T19:36:15.569Z,12.10
2022-11-29T19:38:22.297Z,12.00
2022-11-29T19:40:31.634Z,12.90
2022-11-29T19:42:37.418Z,12.00
2022-11-29T19:45:15.216Z,12.40
2022-11-29T19:47:13.373Z,12.70
2022-11-29T19:49:20.153Z,12.50
2022-11-29T19:51:28.336Z,12.40
2022-11-29T19:53:35.083Z,12.70
2022-11-29T19:55:44.273Z,12.90
2022-11-29T19:57:51.630Z,12.80
2022-11-29T20:00:00.672Z,12.50
2022-11-29T20:02:06.802Z,11.70
2022-11-29T20:04:14.357Z,12.30
2022-11-29T20:06:21.192Z,11.90
2022-11-29T20:08:28.900Z,12.80
2022-11-29T20:10:35.734Z,12.10
2022-11-29T20:12:43.056Z,12.90
2022-11-29T20:14:49.155Z,13.00
2022-11-29T20:16:55.230Z,12.50
2022-11-29T20:19:03.023Z,12.60
2022-11-29T20:21:11.479Z,13.40
2022-11-29T20:23:18.068Z,12.30
2022-11-29T20:25:24.347Z,13.50
2022-11-29T20:27:32.528Z,13.40
2022-11-29T20:29:39.350Z,13.20
2022-11-29T20:31:50.711Z,13.10
2022-11-29T20:33:58.159Z,12.80
2022-11-29T20:36:14.139Z,13.00
2022-11-29T20:38:31.499Z,12.50
2022-11-29T20:40:52.802Z,12.50
2022-11-29T20:43:15.714Z,13.00
2022-11-29T20:45:23.796Z,12.40
2022-11-29T20:47:40.952Z,14.30
2022-11-29T20:49:48.554Z,30.70
2022-11-29T20:52:02.951Z,15.20
2022-11-29T20:54:12.955Z,12.70
2022-11-29T20:56:19.328Z,12.80
2022-11-29T20:58:25.708Z,14.00
2022-11-29T21:00:32.204Z,13.20
2022-11-29T21:02:38.171Z,12.80
2022-11-29T21:04:44.452Z,12.20
2022-11-29T21:06:50.050Z,12.00
2022-11-29T21:08:55.357Z,12.70
2022-11-29T21:11:06.719Z,12.10
2022-11-29T21:13:14.661Z,13.50
2022-11-29T21:15:21.290Z,12.40
2022-11-29T21:17:33.193Z,12.60
2022-11-29T21:19:40.389Z,12.50
2022-11-29T21:21:57.753Z,12.40
2022-11-29T21:24:12.177Z,12.30
2022-11-29T21:26:20.383Z,13.10
2022-11-29T21:28:35.029Z,14.00
2022-11-29T21:30:41.163Z,13.50
2022-11-29T21:32:47.172Z,12.90
2022-11-29T21:34:52.574Z,13.30
2022-11-29T21:36:59.163Z,14.40
2022-11-29T21:39:05.418Z,14.20
2022-11-29T21:41:11.124Z,14.60
2022-11-29T21:43:16.063Z,14.10
2022-11-29T21:45:21.130Z,13.10
2022-11-29T21:47:26.117Z,13.60
2022-11-29T21:49:30.861Z,13.40
2022-11-29T21:51:35.863Z,13.30
2022-11-29T21:53:41.372Z,14.10
2022-11-29T21:55:46.062Z,13.60
2022-11-29T21:57:50.696Z,14.10
2022-11-29T21:59:55.336Z,13.50
2022-11-29T22:02:00.300Z,13.70
2022-11-29T22:04:05.336Z,14.80
2022-11-29T22:06:12.587Z,13.50
2022-11-29T22:08:17.276Z,14.10
2022-11-29T22:10:21.915Z,14.60
2022-11-29T22:12:34.076Z,13.30
2022-11-29T22:14:39.522Z,13.80
2022-11-29T22:16:46.112Z,14.20
2022-11-29T22:18:50.781Z,14.90
2022-11-29T22:20:55.504Z,14.00
2022-11-29T22:23:00.207Z,14.00
2022-11-29T22:25:08.979Z,14.10
2022-11-29T22:27:13.732Z,14.50
2022-11-29T22:29:18.533Z,13.70
2022-11-29T22:31:23.339Z,14.00
2022-11-29T22:33:28.018Z,13.60
2022-11-29T22:35:32.763Z,13.10
2022-11-29T22:37:37.463Z,14.50
2022-11-29T22:39:42.073Z,14.60
2022-11-29T22:41:52.291Z,14.40
2022-11-29T22:43:58.911Z,14.20
2022-11-29T22:46:08.129Z,14.20
2022-11-29T22:48:12.822Z,14.10
2022-11-29T22:50:17.641Z,15.20
2022-11-29T22:52:22.423Z,14.60
2022-11-29T22:54:27.263Z,14.50
2022-11-29T22:56:33.854Z,14.40
2022-11-29T22:58:39.060Z,14.30
2022-11-29T23:00:43.819Z,14.90
2022-11-29T23:02:48.654Z,14.90
2022-11-29T23:04:53.258Z,14.70
2022-11-29T23:06:57.885Z,14.90
2022-11-29T23:09:07.148Z,14.00
2022-11-29T23:11:13.601Z,14.40
2022-11-29T23:13:18.221Z,14.80
2022-11-29T23:15:22.849Z,14.10
2022-11-29T23:17:27.474Z,15.30
2022-11-29T23:19:32.124Z,15.20
2022-11-29T23:21:38.522Z,15.20
2022-11-29T23:23:44.073Z,14.60
2022-11-29T23:25:51.667Z,14.90
2022-11-29T23:27:57.142Z,14.70
2022-11-29T23:30:01.709Z,13.90
2022-11-29T23:32:06.478Z,14.70
2022-11-29T23:34:12.310Z,14.70
2022-11-29T23:36:17.382Z,15.00
2022-11-29T23:38:22.072Z,14.30
2022-11-29T23:40:26.768Z,14.30
2022-11-29T23:42:31.421Z,15.50
2022-11-29T23:44:36.071Z,14.90
2022-11-29T23:46:40.693Z,15.50
2022-11-29T23:48:45.675Z,15.70
2022-11-29T23:50:50.387Z,15.00
2022-11-29T23:52:56.191Z,15.20
2022-11-29T23:55:00.840Z,16.30
2022-11-29T23:57:05.600Z,15.20
2022-11-29T23:59:10.841Z,16.10
